createdAt,value
2019-04-20T00:01:42.801Z,14.80
2019-04-20T00:06:50.954Z,12.63
2019-04-20T00:12:01.611Z,12.10
2019-04-20T00:16:56.866Z,13.60
2019-04-20T00:22:12.317Z,11.88
2019-04-20T00:27:37.075Z,11.45
2019-04-20T00:32:39.691Z,11.53
2019-04-20T00:37:26.123Z,12.05
2019-04-20T00:42:37.987Z,11.65
2019-04-20T00:47:45.445Z,12.60
2019-04-20T00:52:58.313Z,12.93
2019-04-20T00:57:51.418Z,10.72
2019-04-20T01:03:08.038Z,10.98
2019-04-20T01:08:13.287Z,10.90
2019-04-20T01:13:20.118Z,10.03
2019-04-20T01:18:21.723Z,10.80
2019-04-20T01:23:34.635Z,11.83
2019-04-20T01:28:46.430Z,10.63
2019-04-20T01:33:46.160Z,9.60
2019-04-20T01:38:55.434Z,10.25
2019-04-20T01:43:46.161Z,9.58
2019-04-20T01:48:50.622Z,10.03
2019-04-20T01:54:11.803Z,10.55
2019-04-20T01:59:33.464Z,10.18
2019-04-20T02:04:41.004Z,9.88
2019-04-20T02:09:49.912Z,11.53
2019-04-20T02:14:52.458Z,10.20
2019-04-20T02:20:10.428Z,11.95
2019-04-20T02:24:57.790Z,11.80
2019-04-20T02:30:34.364Z,12.20
2019-04-20T02:36:05.023Z,9.98
2019-04-20T02:41:03.489Z,11.15
2019-04-20T02:45:57.381Z,10.18
2019-04-20T02:51:18.555Z,10.03
2019-04-20T03:01:38.026Z,10.95
2019-04-20T03:06:35.043Z,9.90
2019-04-20T03:11:59.699Z,9.83
2019-04-20T03:16:50.729Z,9.78
2019-04-20T03:22:03.841Z,10.58
2019-04-20T03:27:07.540Z,11.10
2019-04-20T03:32:56.142Z,10.00
2019-04-20T03:37:34.727Z,10.03
2019-04-20T03:42:14.232Z,10.93
2019-04-20T03:47:30.363Z,11.15
2019-04-20T03:53:07.332Z,9.45
2019-04-20T03:58:14.238Z,10.00
2019-04-20T04:03:51.259Z,9.67
2019-04-20T04:08:32.626Z,10.87
2019-04-20T04:13:29.241Z,10.87
2019-04-20T04:18:38.682Z,9.83
2019-04-20T04:23:55.868Z,10.07
2019-04-20T04:29:00.641Z,10.75
2019-04-20T04:34:22.889Z,12.05
2019-04-20T04:39:16.681Z,11.30
2019-04-20T04:44:14.822Z,11.83
2019-04-20T04:49:14.751Z,17.25
2019-04-20T04:54:22.201Z,21.85
2019-04-20T04:59:14.946Z,23.55
2019-04-20T05:04:40.485Z,21.23
2019-04-20T05:09:25.631Z,24.65
2019-04-20T05:14:43.257Z,24.77
2019-04-20T05:19:53.149Z,24.18
2019-04-20T05:25:06.787Z,28.32
2019-04-20T05:29:48.817Z,26.97
2019-04-20T05:35:14.980Z,24.47
2019-04-20T05:40:16.457Z,25.97
2019-04-20T05:45:22.054Z,26.12
2019-04-20T05:51:38.037Z,24.63
2019-04-20T05:56:39.745Z,24.50
2019-04-20T06:01:52.675Z,24.23
2019-04-20T06:06:52.060Z,25.13
2019-04-20T06:12:07.812Z,23.80
2019-04-20T06:17:11.395Z,25.30
2019-04-20T06:22:27.193Z,23.70
2019-04-20T06:27:23.929Z,24.30
2019-04-20T06:33:46.405Z,25.30
2019-04-20T06:38:50.942Z,22.90
2019-04-20T06:43:42.176Z,24.10
2019-04-20T06:48:46.101Z,24.20
2019-04-20T06:53:51.570Z,21.10
2019-04-20T06:59:08.186Z,24.35
2019-04-20T07:04:31.736Z,24.80
2019-04-20T07:09:13.903Z,21.90
2019-04-20T07:14:01.118Z,25.43
2019-04-20T07:19:25.336Z,25.65
2019-04-20T07:24:38.602Z,24.47
2019-04-20T07:29:35.210Z,23.95
2019-04-20T07:34:45.599Z,22.22
2019-04-20T07:39:40.682Z,23.73
2019-04-20T07:44:55.258Z,24.75
2019-04-20T07:49:52.372Z,23.20
2019-04-20T07:55:18.319Z,22.15
2019-04-20T08:00:08.118Z,22.00
2019-04-20T08:05:15.502Z,21.65
2019-04-20T08:10:18.973Z,21.87
2019-04-20T08:15:46.164Z,19.27
2019-04-20T08:20:42.811Z,17.30
2019-04-20T08:25:36.014Z,17.90
2019-04-20T08:31:02.393Z,17.02
2019-04-20T08:36:12.285Z,16.77
2019-04-20T08:41:07.300Z,14.75
2019-04-20T08:46:20.518Z,14.00
2019-04-20T08:51:25.766Z,13.83
2019-04-20T08:56:21.977Z,12.75
2019-04-20T09:01:18.421Z,12.33
2019-04-20T09:06:36.451Z,11.33
2019-04-20T09:11:51.598Z,9.65
2019-04-20T09:16:41.832Z,9.23
2019-04-20T09:21:46.269Z,9.23
2019-04-20T09:27:01.208Z,10.65
2019-04-20T09:32:13.933Z,9.60
2019-04-20T09:37:38.191Z,9.40
2019-04-20T09:42:34.652Z,9.35
2019-04-20T09:47:43.332Z,9.67
2019-04-20T09:52:57.065Z,7.72
2019-04-20T09:58:02.682Z,9.40
2019-04-20T10:02:54.597Z,9.33
2019-04-20T10:08:01.247Z,8.95
2019-04-20T10:13:05.531Z,8.27
2019-04-20T10:18:08.038Z,7.87
2019-04-20T10:23:12.461Z,7.50
2019-04-20T10:28:15.934Z,7.25
2019-04-20T10:33:19.577Z,6.55
2019-04-20T10:38:27.586Z,3.72
2019-04-20T10:43:33.193Z,4.40
2019-04-20T10:48:40.285Z,3.33
2019-04-20T10:53:42.361Z,3.55
2019-04-20T10:58:47.494Z,4.03
2019-04-20T11:03:50.816Z,3.72
2019-04-20T11:08:54.045Z,3.25
2019-04-20T11:14:01.473Z,3.60
2019-04-20T11:19:03.282Z,3.87
2019-04-20T11:24:08.159Z,3.85
2019-04-20T11:29:11.493Z,4.17
2019-04-20T11:34:21.950Z,3.77
2019-04-20T11:39:20.904Z,2.75
2019-04-20T11:44:26.834Z,2.02
2019-04-20T11:49:29.263Z,3.40
2019-04-20T11:54:32.489Z,2.98
2019-04-20T11:59:37.024Z,3.25
2019-04-20T12:04:53.376Z,3.20
2019-04-20T12:09:51.433Z,3.92
2019-04-20T12:14:55.253Z,2.73
2019-04-20T12:19:59.937Z,3.42
2019-04-20T12:25:03.490Z,2.80
2019-04-20T12:30:08.300Z,2.83
2019-04-20T12:35:12.413Z,2.25
2019-04-20T12:40:19.926Z,2.58
2019-04-20T12:45:25.831Z,2.00
2019-04-20T12:50:29.821Z,2.37
2019-04-20T12:55:34.650Z,2.85
2019-04-20T13:00:45.885Z,2.27
2019-04-20T13:05:50.058Z,1.63
2019-04-20T13:10:58.382Z,2.30
2019-04-20T13:16:08.229Z,2.00
2019-04-20T13:21:21.073Z,2.00
2019-04-20T13:26:25.027Z,2.65
2019-04-20T13:31:29.687Z,2.30
2019-04-20T13:36:34.465Z,2.45
2019-04-20T13:41:38.159Z,2.20
2019-04-20T13:46:41.399Z,1.80
2019-04-20T13:51:44.679Z,1.80
2019-04-20T13:56:50.085Z,1.60
2019-04-20T14:02:00.857Z,1.67
2019-04-20T14:07:05.732Z,1.32
2019-04-20T14:12:18.755Z,1.50
2019-04-20T14:17:15.077Z,1.67
2019-04-20T14:22:18.798Z,2.00
2019-04-20T14:27:21.975Z,1.07
2019-04-20T14:32:25.286Z,1.47
2019-04-20T14:37:28.963Z,1.60
2019-04-20T14:42:41.838Z,1.80
2019-04-20T14:47:39.436Z,1.60
2019-04-20T14:52:43.818Z,1.90
2019-04-20T14:57:47.788Z,1.17
2019-04-20T15:02:52.130Z,1.50
2019-04-20T15:07:56.636Z,2.00
2019-04-20T15:13:02.797Z,1.52
2019-04-20T15:18:09.416Z,1.67
2019-04-20T15:23:21.654Z,1.60
2019-04-20T15:28:26.147Z,2.25
2019-04-20T15:33:30.756Z,1.87
2019-04-20T15:38:35.382Z,1.82
2019-04-20T15:43:39.407Z,1.40
2019-04-20T15:48:43.898Z,1.90
2019-04-20T15:53:47.513Z,1.77
2019-04-20T15:58:50.647Z,1.70
2019-04-20T16:03:59.280Z,2.10
2019-04-20T16:09:04.504Z,1.85
2019-04-20T16:14:09.082Z,2.50
2019-04-20T16:19:25.689Z,1.55
2019-04-20T16:24:19.623Z,2.27
2019-04-20T16:29:23.909Z,2.10
2019-04-20T16:34:27.613Z,1.87
2019-04-20T16:39:32.050Z,2.02
2019-04-20T16:44:35.717Z,2.20
2019-04-20T16:49:39.117Z,2.30
2019-04-20T16:54:42.311Z,2.33
2019-04-20T16:59:49.003Z,2.50
2019-04-20T17:04:53.302Z,2.08
2019-04-20T17:09:56.000Z,1.95
2019-04-20T17:14:59.126Z,2.00
2019-04-20T17:20:03.941Z,2.50
2019-04-20T17:25:08.282Z,2.25
2019-04-20T17:30:33.656Z,2.65
2019-04-20T17:35:47.304Z,2.50
2019-04-20T17:41:01.802Z,2.85
2019-04-20T17:45:55.794Z,3.05
2019-04-20T17:51:15.368Z,3.03
2019-04-20T17:56:01.647Z,3.03
2019-04-20T18:01:24.332Z,2.72
2019-04-20T18:06:34.819Z,3.37
2019-04-20T18:11:25.258Z,3.00
2019-04-20T18:16:53.387Z,3.83
2019-04-20T18:21:43.570Z,3.77
2019-04-20T18:27:03.922Z,3.40
2019-04-20T18:31:59.650Z,3.42
2019-04-20T18:37:06.449Z,3.00
2019-04-20T18:42:13.090Z,2.90
2019-04-20T18:47:33.090Z,2.37
2019-04-20T18:52:18.090Z,3.20
2019-04-20T18:57:27.261Z,4.25
2019-04-20T19:02:31.175Z,3.47
2019-04-20T19:07:40.145Z,3.70
2019-04-20T19:12:49.608Z,4.17
2019-04-20T19:18:36.765Z,4.25
2019-04-20T19:23:25.125Z,4.08
2019-04-20T19:28:36.848Z,4.40
2019-04-20T19:33:57.442Z,3.63
2019-04-20T19:38:52.388Z,4.05
2019-04-20T19:43:56.390Z,5.30
2019-04-20T19:48:56.587Z,4.80
2019-04-20T19:54:17.971Z,6.15
2019-04-20T19:59:13.635Z,5.60
2019-04-20T20:04:07.616Z,4.97
2019-04-20T20:09:12.834Z,5.75
2019-04-20T20:14:18.022Z,5.50
2019-04-20T20:19:37.153Z,6.05
2019-04-20T20:24:29.078Z,7.33
2019-04-20T20:29:38.468Z,9.43
2019-04-20T20:34:43.139Z,10.00
2019-04-20T20:39:53.611Z,9.33
2019-04-20T20:44:54.969Z,8.35
2019-04-20T20:50:33.879Z,10.18
2019-04-20T20:55:06.875Z,8.33
2019-04-20T21:00:19.367Z,10.00
2019-04-20T21:10:15.314Z,10.75
2019-04-20T21:15:22.534Z,8.70
2019-04-20T21:20:46.543Z,8.53
2019-04-20T21:25:37.791Z,8.68
2019-04-20T21:30:42.877Z,7.17
2019-04-20T21:35:47.026Z,7.05
2019-04-20T21:40:49.689Z,6.60
2019-04-20T21:45:59.408Z,7.03
2019-04-20T21:51:13.716Z,6.22
2019-04-20T21:56:03.905Z,8.00
2019-04-20T22:01:18.597Z,7.03
2019-04-20T22:06:13.956Z,7.78
2019-04-20T22:11:17.909Z,7.15
2019-04-20T22:16:22.657Z,6.92
2019-04-20T22:21:42.490Z,6.45
2019-04-20T22:26:41.565Z,6.50
2019-04-20T22:31:38.141Z,8.45
2019-04-20T22:36:45.530Z,6.60
2019-04-20T22:42:00.172Z,7.60
2019-04-20T22:47:00.619Z,7.00
2019-04-20T22:52:23.425Z,6.80
2019-04-20T22:57:27.886Z,6.47
2019-04-20T23:02:16.536Z,6.33
2019-04-20T23:07:20.978Z,6.23
2019-04-20T23:12:26.955Z,6.25
2019-04-20T23:17:35.932Z,5.87
2019-04-20T23:22:38.910Z,6.17
2019-04-20T23:27:40.757Z,5.50
2019-04-20T23:32:44.434Z,6.30
2019-04-20T23:37:48.518Z,5.67
2019-04-20T23:42:57.956Z,5.60
2019-04-20T23:48:08.486Z,6.00
2019-04-20T23:53:28.431Z,5.58
2019-04-20T23:58:18.142Z,4.77
